Fenelon Falls, Canada
Current Conditions -  °F | °C
As of 12:45 AM on Tuesday 27 Jan 2015 (Local Time) from CYPQ Reporting Station
Light Snow Light Snow  
Wind Chill: -5°   Ceiling: 4800
Heat Index:   Visibility: 9mi
Dew Point: -4°   Wind: 9mph
Humidity: 57%   Direction: 40°NE
Pressure: 30.01"   Gusts: 17mph
Location:  44.53°N, 78.75°W
Report Text: CYPQ 270545Z AUTO 04008G15KT 9SM -SN BKN048 BKN070 BKN088 OVC110 M13/M20 A3001 RMK SLP176
Loading
Personal Weather Stations






























Interactive Weather Map New forecast layout! Learn more

10-Day Weather Forecast

Advertisements
Track Severe Weather on mobile